createdAt,value
2022-08-05T00:02:23.535Z,36.48
2022-08-05T00:04:55.306Z,36.76
2022-08-05T00:07:58.775Z,36.96
2022-08-05T00:10:12.315Z,36.88
2022-08-05T00:12:55.945Z,36.64
2022-08-05T00:15:56.051Z,37.14
2022-08-05T00:18:21.575Z,37.11
2022-08-05T00:20:52.627Z,37.28
2022-08-05T00:23:30.832Z,37.08
2022-08-05T00:26:09.752Z,37.40
2022-08-05T00:28:37.990Z,37.32
2022-08-05T00:31:08.526Z,37.34
2022-08-05T00:34:56.127Z,37.65
2022-08-05T00:37:12.593Z,37.63
2022-08-05T00:39:16.203Z,37.56
2022-08-05T00:41:54.977Z,37.88
2022-08-05T00:44:30.665Z,37.69
2022-08-05T00:47:04.227Z,37.66
2022-08-05T00:49:44.589Z,37.80
2022-08-05T00:52:28.396Z,37.64
2022-08-05T00:54:57.290Z,37.70
2022-08-05T00:57:38.433Z,37.73
2022-08-05T01:00:15.033Z,37.76
2022-08-05T01:02:45.152Z,37.76
2022-08-05T01:05:13.666Z,37.83
2022-08-05T01:08:41.991Z,37.93
2022-08-05T01:10:39.367Z,38.27
2022-08-05T01:13:22.272Z,38.37
2022-08-05T01:16:01.733Z,38.05
2022-08-05T01:18:35.115Z,38.26
2022-08-05T01:21:12.317Z,38.42
2022-08-05T01:24:13.235Z,38.16
2022-08-05T01:26:57.610Z,38.37
2022-08-05T01:29:32.877Z,38.82
2022-08-05T01:32:12.435Z,38.18
2022-08-05T01:34:55.703Z,38.39
2022-08-05T01:37:31.094Z,38.91
2022-08-05T01:40:03.080Z,38.55
2022-08-05T01:42:33.925Z,38.61
2022-08-05T01:45:04.353Z,38.92
2022-08-05T01:47:39.263Z,38.99
2022-08-05T01:50:15.732Z,39.14
2022-08-05T01:52:49.697Z,39.16
2022-08-05T01:55:21.723Z,39.09
2022-08-05T01:58:12.770Z,39.44
2022-08-05T02:00:50.166Z,39.96
2022-08-05T02:03:24.237Z,39.75
2022-08-05T02:06:03.791Z,39.36
2022-08-05T02:08:57.972Z,39.22
2022-08-05T02:11:33.494Z,39.57
2022-08-05T02:14:06.437Z,39.79
2022-08-05T02:16:40.683Z,40.04
2022-08-05T02:19:18.958Z,40.58
2022-08-05T02:21:54.514Z,40.67
2022-08-05T02:24:28.031Z,40.36
2022-08-05T02:27:01.014Z,40.58
2022-08-05T02:29:58.973Z,40.20
2022-08-05T02:32:31.837Z,40.48
2022-08-05T02:35:02.158Z,40.57
2022-08-05T02:37:47.859Z,40.54
2022-08-05T02:40:24.276Z,40.50
2022-08-05T02:42:55.278Z,40.89
2022-08-05T02:45:25.231Z,40.51
2022-08-05T02:48:11.985Z,40.94
2022-08-05T02:50:43.944Z,41.07
2022-08-05T02:53:18.771Z,41.17
2022-08-05T02:55:59.813Z,41.09
2022-08-05T02:58:30.312Z,41.22
2022-08-05T03:01:02.226Z,41.44
2022-08-05T03:04:03.266Z,41.86
2022-08-05T03:06:57.091Z,41.63
2022-08-05T03:09:15.910Z,41.73
2022-08-05T03:11:58.067Z,41.56
2022-08-05T03:14:26.794Z,41.79
2022-08-05T03:16:54.788Z,41.99
2022-08-05T03:19:33.709Z,42.14
2022-08-05T03:22:04.679Z,42.31
2022-08-05T03:24:33.784Z,42.47
2022-08-05T03:27:03.166Z,42.87
2022-08-05T03:29:45.407Z,42.88
2022-08-05T03:32:30.972Z,43.04
2022-08-05T03:35:01.234Z,43.35
2022-08-05T03:37:45.675Z,43.43
2022-08-05T03:40:15.527Z,43.62
2022-08-05T03:42:53.147Z,44.08
2022-08-05T03:45:23.395Z,43.98
2022-08-05T03:47:56.767Z,44.25
2022-08-05T03:50:30.126Z,44.69
2022-08-05T03:55:49.775Z,44.87
2022-08-05T03:56:11.536Z,44.82
2022-08-05T03:58:43.738Z,44.66
2022-08-05T04:01:15.016Z,44.36
2022-08-05T04:04:09.409Z,44.88
2022-08-05T04:06:36.021Z,44.82
2022-08-05T04:09:07.044Z,44.96
2022-08-05T04:11:50.510Z,44.41
2022-08-05T04:14:30.296Z,44.78
2022-08-05T04:17:00.822Z,44.80
2022-08-05T04:19:31.381Z,45.12
2022-08-05T04:22:08.434Z,44.93
2022-08-05T04:24:44.270Z,44.83
2022-08-05T04:27:13.873Z,45.40
2022-08-05T04:29:43.715Z,45.03
2022-08-05T04:32:11.708Z,45.24
2022-08-05T04:34:43.291Z,44.90
2022-08-05T04:37:13.050Z,45.39
2022-08-05T04:39:41.190Z,45.24
2022-08-05T04:42:10.103Z,45.29
2022-08-05T04:44:39.386Z,44.96
2022-08-05T04:47:09.933Z,45.10
2022-08-05T04:50:01.343Z,44.84
2022-08-05T04:52:29.118Z,44.98
2022-08-05T04:55:13.922Z,44.69
2022-08-05T04:57:47.989Z,44.98
2022-08-05T05:00:23.655Z,44.53
2022-08-05T05:02:52.699Z,44.76
2022-08-05T05:05:28.142Z,44.43
2022-08-05T05:08:02.546Z,45.38
2022-08-05T05:10:33.336Z,44.49
2022-08-05T05:13:03.767Z,44.74
2022-08-05T05:16:00.479Z,44.97
2022-08-05T05:18:31.123Z,45.11
2022-08-05T05:21:01.675Z,44.98
2022-08-05T05:24:01.876Z,44.64
2022-08-05T05:26:19.205Z,44.87
2022-08-05T05:28:47.210Z,45.02
2022-08-05T05:31:15.271Z,44.70
2022-08-05T05:33:59.086Z,44.93
2022-08-05T05:36:30.150Z,44.88
2022-08-05T05:38:59.814Z,45.43
2022-08-05T05:41:40.866Z,44.88
2022-08-05T05:44:35.848Z,45.34
2022-08-05T05:47:04.480Z,44.87
2022-08-05T05:49:33.172Z,45.13
2022-08-05T05:52:06.082Z,45.02
2022-08-05T05:54:50.558Z,45.13
2022-08-05T05:57:19.851Z,45.56
2022-08-05T05:59:48.964Z,45.06
2022-08-05T06:02:37.473Z,45.15
2022-08-05T06:05:10.492Z,45.19
2022-08-05T06:07:57.864Z,45.05
2022-08-05T06:10:36.411Z,45.37
2022-08-05T06:13:06.111Z,45.25
2022-08-05T06:16:28.287Z,45.39
2022-08-05T06:18:22.086Z,45.38
2022-08-05T06:20:59.484Z,45.97
2022-08-05T06:23:27.510Z,45.70
2022-08-05T06:26:21.669Z,46.23
2022-08-05T06:28:52.098Z,45.57
2022-08-05T06:31:22.124Z,45.86
2022-08-05T06:34:08.062Z,45.99
2022-08-05T06:36:37.453Z,46.02
2022-08-05T06:39:26.951Z,45.96
2022-08-05T06:41:58.637Z,45.72
2022-08-05T06:44:27.379Z,45.30
2022-08-05T06:46:55.842Z,45.07
2022-08-05T06:50:00.297Z,44.91
2022-08-05T06:52:36.978Z,44.56
2022-08-05T06:55:00.717Z,44.59
2022-08-05T06:58:02.965Z,44.78
2022-08-05T07:00:24.455Z,44.43
2022-08-05T07:02:54.229Z,44.46
2022-08-05T07:05:27.651Z,44.25
2022-08-05T07:08:05.567Z,44.21
2022-08-05T07:10:33.609Z,44.82
2022-08-05T07:13:57.225Z,44.66
2022-08-05T07:18:00.303Z,44.81
2022-08-05T07:19:16.078Z,44.82
2022-08-05T07:22:02.786Z,44.48
2022-08-05T07:24:30.711Z,44.16
2022-08-05T07:26:59.522Z,44.17
2022-08-05T07:30:25.452Z,44.25
2022-08-05T07:32:26.306Z,44.31
2022-08-05T07:34:58.007Z,44.23
2022-08-05T07:37:26.658Z,43.99
2022-08-05T07:40:26.775Z,44.08
2022-08-05T07:42:52.657Z,44.21
2022-08-05T07:45:56.537Z,44.12
2022-08-05T07:48:10.130Z,44.05
2022-08-05T07:50:38.296Z,44.08
2022-08-05T07:53:07.089Z,43.98
2022-08-05T07:56:04.664Z,44.49
2022-08-05T07:58:57.786Z,44.63
2022-08-05T08:01:12.563Z,44.79
2022-08-05T08:03:44.713Z,44.41
2022-08-05T08:06:12.870Z,45.02
2022-08-05T08:08:40.865Z,44.35
2022-08-05T08:11:09.110Z,44.22
2022-08-05T08:14:00.426Z,44.59
2022-08-05T08:16:49.866Z,44.36
2022-08-05T08:20:21.306Z,44.51
2022-08-05T08:22:07.221Z,44.73
2022-08-05T08:24:51.498Z,44.39
2022-08-05T08:27:20.199Z,44.74
2022-08-05T08:30:06.688Z,44.63
2022-08-05T08:32:41.787Z,44.64
2022-08-05T08:35:13.467Z,44.40
2022-08-05T08:37:44.963Z,44.13
2022-08-05T08:40:14.060Z,44.00
2022-08-05T08:42:50.351Z,44.20
2022-08-05T08:45:27.076Z,44.14
2022-08-05T08:48:07.475Z,43.60
2022-08-05T08:51:22.572Z,43.82
2022-08-05T08:53:37.374Z,43.62
2022-08-05T08:56:06.720Z,43.59
2022-08-05T08:58:43.524Z,43.74
2022-08-05T09:01:18.085Z,44.13
2022-08-05T09:03:54.316Z,44.11
2022-08-05T09:06:29.471Z,43.60
2022-08-05T09:09:00.207Z,43.41
2022-08-05T09:11:50.806Z,43.55
2022-08-05T09:14:57.406Z,43.30
2022-08-05T09:17:09.522Z,43.47
2022-08-05T09:20:02.658Z,43.22
2022-08-05T09:23:18.470Z,43.51
2022-08-05T09:26:01.065Z,43.73
2022-08-05T09:28:33.822Z,44.17
2022-08-05T09:31:44.159Z,44.07
2022-08-05T09:33:55.241Z,43.65
2022-08-05T09:36:38.582Z,43.56
2022-08-05T09:39:41.167Z,43.72
2022-08-05T09:42:17.485Z,43.82
2022-08-05T09:44:56.031Z,44.03
2022-08-05T09:47:48.086Z,44.51
2022-08-05T09:50:38.000Z,44.70
2022-08-05T09:53:08.902Z,44.78
2022-08-05T09:55:56.507Z,44.43
2022-08-05T09:58:29.129Z,44.80
2022-08-05T10:01:01.963Z,44.26
2022-08-05T10:03:58.818Z,44.62
2022-08-05T10:06:28.850Z,44.32
2022-08-05T10:09:25.077Z,44.38
2022-08-05T10:11:56.509Z,43.96
2022-08-05T10:14:28.537Z,44.25
2022-08-05T10:17:37.268Z,44.53
2022-08-05T10:20:09.932Z,44.12
2022-08-05T10:22:42.872Z,44.18
2022-08-05T10:25:18.875Z,43.90
2022-08-05T10:28:12.698Z,44.25
2022-08-05T10:32:47.266Z,44.30
2022-08-05T10:33:28.813Z,43.80
2022-08-05T10:35:59.190Z,43.89
2022-08-05T10:38:29.714Z,43.29
2022-08-05T10:41:08.945Z,43.11
2022-08-05T10:43:48.884Z,42.91
2022-08-05T10:46:19.219Z,43.11
2022-08-05T10:49:01.466Z,42.88
2022-08-05T10:51:53.212Z,42.08
2022-08-05T10:54:56.925Z,42.22
2022-08-05T10:57:32.312Z,41.03
2022-08-05T11:00:20.189Z,41.17
2022-08-05T11:03:25.730Z,40.75
2022-08-05T11:06:15.714Z,40.23
2022-08-05T11:09:16.687Z,40.12
2022-08-05T11:11:53.452Z,40.30
2022-08-05T11:14:57.861Z,39.58
2022-08-05T11:17:59.993Z,39.15
2022-08-05T11:20:41.484Z,38.46
2022-08-05T11:24:04.359Z,37.97
2022-08-05T11:26:29.110Z,38.13
2022-08-05T11:29:12.245Z,37.77
2022-08-05T11:31:56.560Z,36.85
2022-08-05T11:34:39.517Z,36.36
2022-08-05T11:38:28.356Z,37.32
2022-08-05T11:40:02.741Z,37.48
2022-08-05T11:42:40.317Z,37.51
2022-08-05T11:45:23.526Z,37.35
2022-08-05T11:47:59.862Z,36.97
2022-08-05T11:50:29.224Z,37.54
2022-08-05T11:52:58.291Z,37.70
2022-08-05T11:55:31.637Z,37.92
2022-08-05T11:58:08.436Z,37.57
2022-08-05T12:00:41.394Z,37.40
2022-08-05T12:03:28.561Z,36.48
2022-08-05T12:06:01.483Z,37.07
2022-08-05T12:08:32.678Z,36.76
2022-08-05T12:11:03.416Z,36.48
2022-08-05T12:13:49.523Z,36.28
2022-08-05T12:16:26.948Z,35.60
2022-08-05T12:18:57.113Z,35.48
2022-08-05T12:21:30.359Z,35.20
2022-08-05T12:24:06.782Z,34.54
2022-08-05T12:26:36.529Z,35.11
2022-08-05T12:29:09.892Z,35.35
2022-08-05T12:31:52.977Z,35.34
2022-08-05T12:34:28.473Z,35.03
2022-08-05T12:36:59.053Z,35.22
2022-08-05T12:39:34.651Z,35.08
2022-08-05T12:42:14.988Z,34.73
2022-08-05T12:44:44.527Z,35.10
2022-08-05T12:47:13.294Z,35.07
2022-08-05T12:50:03.565Z,34.96
2022-08-05T12:52:42.181Z,35.09
2022-08-05T12:55:23.765Z,34.59
2022-08-05T12:58:48.495Z,34.67
2022-08-05T13:02:04.443Z,34.59
2022-08-05T13:03:41.431Z,33.68
2022-08-05T13:06:17.202Z,33.23
2022-08-05T13:08:52.227Z,33.55
2022-08-05T13:11:59.655Z,33.60
2022-08-05T13:14:25.052Z,33.77
2022-08-05T13:17:10.243Z,32.99
2022-08-05T13:19:51.710Z,33.39
2022-08-05T13:22:28.048Z,32.57
2022-08-05T13:25:00.774Z,32.79
2022-08-05T13:27:38.569Z,32.59
2022-08-05T13:30:36.836Z,32.12
2022-08-05T13:33:01.674Z,32.30
2022-08-05T13:35:43.225Z,31.93
2022-08-05T13:38:28.017Z,31.16
2022-08-05T13:41:03.315Z,31.21
2022-08-05T13:43:44.590Z,30.98
2022-08-05T13:46:16.129Z,31.04
2022-08-05T13:49:00.292Z,30.93
2022-08-05T13:51:36.510Z,30.40
2022-08-05T13:54:11.570Z,30.73
2022-08-05T13:56:45.398Z,30.84
2022-08-05T13:59:21.116Z,30.58
2022-08-05T14:01:57.489Z,30.75
2022-08-05T14:04:49.586Z,30.52
2022-08-05T14:07:56.240Z,30.72
2022-08-05T14:10:11.997Z,30.69
2022-08-05T14:12:42.623Z,31.06
2022-08-05T14:16:04.719Z,31.00
2022-08-05T14:18:00.940Z,30.98
2022-08-05T14:20:30.725Z,30.89
2022-08-05T14:22:58.757Z,31.09
2022-08-05T14:25:30.279Z,31.00
2022-08-05T14:27:58.801Z,31.01
2022-08-05T14:30:27.885Z,30.75
2022-08-05T14:32:57.062Z,30.76
2022-08-05T14:35:37.256Z,30.92
2022-08-05T14:38:32.315Z,30.47
2022-08-05T14:41:06.729Z,30.48
2022-08-05T14:43:57.456Z,30.66
2022-08-05T14:46:29.150Z,30.29
2022-08-05T14:49:03.507Z,30.35
2022-08-05T14:51:37.585Z,30.24
2022-08-05T14:54:26.236Z,30.20
2022-08-05T14:56:56.058Z,30.26
2022-08-05T14:59:24.172Z,30.25
2022-08-05T15:01:53.800Z,30.32
2022-08-05T15:04:22.893Z,30.57
2022-08-05T15:06:51.914Z,30.02
2022-08-05T15:09:52.656Z,30.36
2022-08-05T15:12:16.757Z,30.27
2022-08-05T15:14:50.127Z,30.03
2022-08-05T15:17:44.813Z,29.77
2022-08-05T15:20:15.575Z,29.98
2022-08-05T15:22:46.791Z,29.94
2022-08-05T15:25:23.664Z,29.63
2022-08-05T15:28:13.391Z,29.77
2022-08-05T15:30:45.518Z,29.60
2022-08-05T15:33:56.574Z,29.98
2022-08-05T15:36:04.659Z,29.34
2022-08-05T15:38:40.938Z,29.12
2022-08-05T15:41:23.160Z,29.12
2022-08-05T15:43:54.479Z,28.26
2022-08-05T15:46:24.313Z,28.28
2022-08-05T15:48:58.853Z,28.18
2022-08-05T15:52:13.240Z,28.07
2022-08-05T15:54:18.219Z,27.41
2022-08-05T15:56:46.145Z,27.40
2022-08-05T15:59:22.301Z,27.02
2022-08-05T16:01:53.005Z,27.16
2022-08-05T16:04:25.681Z,27.05
2022-08-05T16:06:54.236Z,26.56
2022-08-05T16:09:24.454Z,26.46
2022-08-05T16:11:53.731Z,26.35
2022-08-05T16:14:23.456Z,26.26
2022-08-05T16:16:51.594Z,26.45
2022-08-05T16:20:03.640Z,26.19
2022-08-05T16:22:10.722Z,28.41
2022-08-05T16:24:41.380Z,27.95
2022-08-05T16:27:19.432Z,28.48
2022-08-05T16:30:23.185Z,28.22
2022-08-05T16:32:54.742Z,28.26
2022-08-05T16:35:28.585Z,28.29
2022-08-05T16:38:16.456Z,28.40
2022-08-05T16:40:55.742Z,27.88
2022-08-05T16:43:30.356Z,27.45
2022-08-05T16:46:12.945Z,26.70
2022-08-05T16:48:51.394Z,26.66
2022-08-05T16:51:19.437Z,26.24
2022-08-05T16:54:04.852Z,26.01
2022-08-05T16:56:37.160Z,25.58
2022-08-05T16:59:10.307Z,25.38
2022-08-05T17:01:54.805Z,24.92
2022-08-05T17:04:26.563Z,24.77
2022-08-05T17:07:00.145Z,24.69
2022-08-05T17:09:29.886Z,24.95
2022-08-05T17:12:00.045Z,24.76
2022-08-05T17:14:36.987Z,24.75
2022-08-05T17:17:09.333Z,24.48
2022-08-05T17:19:47.885Z,24.33
2022-08-05T17:22:24.967Z,24.24
2022-08-05T17:24:57.573Z,24.04
2022-08-05T17:27:33.627Z,24.13
2022-08-05T17:30:03.108Z,24.22
2022-08-05T17:32:34.622Z,24.02
2022-08-05T17:35:04.049Z,25.12
2022-08-05T17:37:41.806Z,24.60
2022-08-05T17:40:17.248Z,24.55
2022-08-05T17:42:51.098Z,24.37
2022-08-05T17:45:22.149Z,24.47
2022-08-05T17:47:55.824Z,23.98
2022-08-05T17:50:28.545Z,24.00
2022-08-05T17:53:02.282Z,24.24
2022-08-05T17:55:38.183Z,24.59
2022-08-05T17:58:12.377Z,24.41
2022-08-05T18:00:45.283Z,24.26
2022-08-05T18:06:12.152Z,24.33
2022-08-05T18:08:45.481Z,24.28
2022-08-05T18:11:24.369Z,24.32
2022-08-05T18:14:04.272Z,24.33
2022-08-05T18:16:35.105Z,24.53
2022-08-05T18:19:16.498Z,24.27
2022-08-05T18:22:08.775Z,24.32
2022-08-05T18:24:32.669Z,24.63
2022-08-05T18:27:01.099Z,24.54
2022-08-05T18:29:40.789Z,24.69
2022-08-05T18:32:12.917Z,24.62
2022-08-05T18:34:43.008Z,24.38
2022-08-05T18:37:12.693Z,24.65
2022-08-05T18:40:34.426Z,24.58
2022-08-05T18:42:47.609Z,24.82
2022-08-05T18:45:15.562Z,24.67
2022-08-05T18:47:43.812Z,25.16
2022-08-05T18:50:42.232Z,25.02
2022-08-05T18:53:20.852Z,25.17
2022-08-05T18:55:53.203Z,25.15
2022-08-05T18:58:28.657Z,25.36
2022-08-05T19:00:58.522Z,24.97
2022-08-05T19:03:55.591Z,25.33
2022-08-05T19:06:21.911Z,25.20
2022-08-05T19:08:50.324Z,25.39
2022-08-05T19:11:27.985Z,25.68
2022-08-05T19:14:00.859Z,25.55
2022-08-05T19:16:33.031Z,25.72
2022-08-05T19:19:05.064Z,25.86
2022-08-05T19:21:34.991Z,25.68
2022-08-05T19:24:12.655Z,25.67
2022-08-05T19:26:54.889Z,25.63
2022-08-05T19:29:35.464Z,25.97
2022-08-05T19:32:04.396Z,25.89
2022-08-05T19:34:32.716Z,25.96
2022-08-05T19:37:02.110Z,25.83
2022-08-05T19:39:31.863Z,25.94
2022-08-05T19:42:07.387Z,26.24
2022-08-05T19:44:44.530Z,26.32
2022-08-05T19:47:16.148Z,26.21
2022-08-05T19:49:44.621Z,26.55
2022-08-05T19:52:31.418Z,26.14
2022-08-05T19:55:06.790Z,26.34
2022-08-05T19:57:47.401Z,26.46
2022-08-05T20:00:23.862Z,26.41
2022-08-05T20:02:52.572Z,26.43
2022-08-05T20:05:24.736Z,26.52
2022-08-05T20:07:59.097Z,26.67
2022-08-05T20:10:27.359Z,27.06
2022-08-05T20:12:56.978Z,26.70
2022-08-05T20:15:51.944Z,26.79
2022-08-05T20:18:33.767Z,27.16
2022-08-05T20:21:01.210Z,27.27
2022-08-05T20:23:44.511Z,27.46
2022-08-05T20:26:18.457Z,27.20
2022-08-05T20:28:48.723Z,27.55
2022-08-05T20:31:17.261Z,27.93
2022-08-05T20:33:45.743Z,27.91
2022-08-05T20:36:17.857Z,28.01
2022-08-05T20:38:53.749Z,27.66
2022-08-05T20:41:27.424Z,28.20
2022-08-05T20:44:29.841Z,27.89
2022-08-05T20:46:59.717Z,28.45
2022-08-05T20:49:27.759Z,28.46
2022-08-05T20:51:58.040Z,28.29
2022-08-05T20:54:43.308Z,28.46
2022-08-05T20:57:24.837Z,28.89
2022-08-05T21:00:21.177Z,28.90
2022-08-05T21:03:01.214Z,28.98
2022-08-05T21:05:48.098Z,28.54
2022-08-05T21:08:17.769Z,29.11
2022-08-05T21:10:49.149Z,29.40
2022-08-05T21:13:26.515Z,29.13
2022-08-05T21:16:06.279Z,28.90
2022-08-05T21:18:34.220Z,28.95
2022-08-05T21:21:04.000Z,29.07
2022-08-05T21:23:37.296Z,29.21
2022-08-05T21:26:14.474Z,29.63
2022-08-05T21:28:47.949Z,29.54
2022-08-05T21:31:19.203Z,29.41
2022-08-05T21:33:49.438Z,29.71
2022-08-05T21:36:27.593Z,29.74
2022-08-05T21:38:58.614Z,29.29
2022-08-05T21:41:33.796Z,29.51
2022-08-05T21:44:04.152Z,29.43
2022-08-05T21:46:34.666Z,29.83
2022-08-05T21:49:04.750Z,29.12
2022-08-05T21:52:22.580Z,29.54
2022-08-05T21:54:27.817Z,29.49
2022-08-05T22:00:03.932Z,29.78
2022-08-05T22:02:41.626Z,29.84
2022-08-05T22:05:11.464Z,29.65
2022-08-05T22:07:59.259Z,29.35
2022-08-05T22:10:29.210Z,29.41
2022-08-05T22:13:58.794Z,29.59
2022-08-05T22:16:02.532Z,29.62
2022-08-05T22:18:35.780Z,29.84
2022-08-05T22:21:04.679Z,29.60
2022-08-05T22:24:03.062Z,29.69
2022-08-05T22:26:54.050Z,29.69
2022-08-05T22:29:26.324Z,29.69
2022-08-05T22:32:02.650Z,30.05
2022-08-05T22:34:31.997Z,29.69
2022-08-05T22:37:00.436Z,29.91
2022-08-05T22:39:33.362Z,29.98
2022-08-05T22:42:11.043Z,30.00
2022-08-05T22:44:53.522Z,29.84
2022-08-05T22:47:29.285Z,30.26
2022-08-05T22:50:19.259Z,29.89
2022-08-05T22:52:48.080Z,30.33
2022-08-05T22:55:18.886Z,30.24
2022-08-05T22:57:49.023Z,30.20
2022-08-05T23:00:20.707Z,30.89
2022-08-05T23:02:49.982Z,30.57
2022-08-05T23:05:18.706Z,30.59
2022-08-05T23:07:49.607Z,30.69
2022-08-05T23:10:20.286Z,30.92
2022-08-05T23:12:51.471Z,30.48
2022-08-05T23:15:26.719Z,30.58
2022-08-05T23:18:00.434Z,30.69
2022-08-05T23:20:29.987Z,31.23
2022-08-05T23:22:58.629Z,31.16
2022-08-05T23:25:54.867Z,30.75
2022-08-05T23:28:15.909Z,30.77
2022-08-05T23:30:53.234Z,31.13
2022-08-05T23:34:02.903Z,31.20
2022-08-05T23:36:10.811Z,31.26
2022-08-05T23:38:42.072Z,31.01
2022-08-05T23:41:11.061Z,30.82
2022-08-05T23:44:04.427Z,31.38
2022-08-05T23:46:28.812Z,31.24
2022-08-05T23:49:00.440Z,31.11
2022-08-05T23:51:54.812Z,31.16
2022-08-05T23:54:25.870Z,31.69
2022-08-05T23:57:03.509Z,31.58
